sensor_id;sensor_type;location;lat;lon;timestamp;P1;durP1;ratioP1;P2;durP2;ratioP2
17239;SDS011;9943;54.378;18.604;2022-11-11T00:01:31;17.60;;;9.05;;
17239;SDS011;9943;54.378;18.604;2022-11-11T00:03:59;16.15;;;8.75;;
17239;SDS011;9943;54.378;18.604;2022-11-11T00:06:32;14.30;;;8.77;;
17239;SDS011;9943;54.378;18.604;2022-11-11T00:09:01;15.50;;;8.48;;
17239;SDS011;9943;54.378;18.604;2022-11-11T00:11:29;17.67;;;8.18;;
17239;SDS011;9943;54.378;18.604;2022-11-11T00:13:58;14.98;;;8.40;;
17239;SDS011;9943;54.378;18.604;2022-11-11T00:16:29;16.10;;;8.90;;
17239;SDS011;9943;54.378;18.604;2022-11-11T00:19:19;17.00;;;8.93;;
17239;SDS011;9943;54.378;18.604;2022-11-11T00:22:10;15.13;;;8.73;;
17239;SDS011;9943;54.378;18.604;2022-11-11T00:25:06;16.52;;;8.85;;
17239;SDS011;9943;54.378;18.604;2022-11-11T00:27:37;17.40;;;8.45;;
17239;SDS011;9943;54.378;18.604;2022-11-11T00:30:07;17.23;;;8.75;;
17239;SDS011;9943;54.378;18.604;2022-11-11T00:32:43;13.02;;;9.50;;
17239;SDS011;9943;54.378;18.604;2022-11-11T00:35:12;17.25;;;8.63;;
17239;SDS011;9943;54.378;18.604;2022-11-11T00:38:07;16.13;;;8.60;;
17239;SDS011;9943;54.378;18.604;2022-11-11T00:40:37;18.35;;;8.88;;
17239;SDS011;9943;54.378;18.604;2022-11-11T00:43:05;14.93;;;8.68;;
17239;SDS011;9943;54.378;18.604;2022-11-11T00:45:36;12.00;;;8.52;;
17239;SDS011;9943;54.378;18.604;2022-11-11T00:48:05;18.65;;;9.10;;
17239;SDS011;9943;54.378;18.604;2022-11-11T00:50:57;16.05;;;8.10;;
17239;SDS011;9943;54.378;18.604;2022-11-11T00:53:30;18.63;;;8.88;;
17239;SDS011;9943;54.378;18.604;2022-11-11T00:56:02;15.30;;;8.85;;
17239;SDS011;9943;54.378;18.604;2022-11-11T00:58:32;12.60;;;7.97;;
17239;SDS011;9943;54.378;18.604;2022-11-11T01:01:01;11.02;;;7.90;;
17239;SDS011;9943;54.378;18.604;2022-11-11T01:03:34;17.73;;;8.95;;
17239;SDS011;9943;54.378;18.604;2022-11-11T01:06:08;15.52;;;8.07;;
17239;SDS011;9943;54.378;18.604;2022-11-11T01:08:39;14.75;;;7.95;;
17239;SDS011;9943;54.378;18.604;2022-11-11T01:11:12;12.50;;;7.65;;
17239;SDS011;9943;54.378;18.604;2022-11-11T01:13:43;17.48;;;8.63;;
17239;SDS011;9943;54.378;18.604;2022-11-11T01:16:14;20.02;;;9.25;;
17239;SDS011;9943;54.378;18.604;2022-11-11T01:18:49;18.67;;;9.10;;
17239;SDS011;9943;54.378;18.604;2022-11-11T01:21:24;14.18;;;7.93;;
17239;SDS011;9943;54.378;18.604;2022-11-11T01:23:54;15.13;;;8.45;;
17239;SDS011;9943;54.378;18.604;2022-11-11T01:26:23;12.10;;;7.88;;
17239;SDS011;9943;54.378;18.604;2022-11-11T01:28:52;15.80;;;8.77;;
17239;SDS011;9943;54.378;18.604;2022-11-11T01:31:23;14.20;;;7.70;;
17239;SDS011;9943;54.378;18.604;2022-11-11T01:33:52;12.30;;;8.18;;
17239;SDS011;9943;54.378;18.604;2022-11-11T01:36:21;16.75;;;9.30;;
17239;SDS011;9943;54.378;18.604;2022-11-11T01:38:55;11.00;;;7.05;;
17239;SDS011;9943;54.378;18.604;2022-11-11T01:41:26;14.18;;;8.18;;
17239;SDS011;9943;54.378;18.604;2022-11-11T01:44:17;15.82;;;8.13;;
17239;SDS011;9943;54.378;18.604;2022-11-11T01:47:12;10.88;;;7.72;;
17239;SDS011;9943;54.378;18.604;2022-11-11T01:49:45;13.43;;;7.70;;
17239;SDS011;9943;54.378;18.604;2022-11-11T01:52:18;17.70;;;8.18;;
17239;SDS011;9943;54.378;18.604;2022-11-11T01:54:52;16.50;;;8.20;;
17239;SDS011;9943;54.378;18.604;2022-11-11T01:57:31;11.82;;;7.55;;
17239;SDS011;9943;54.378;18.604;2022-11-11T02:00:04;13.57;;;7.25;;
17239;SDS011;9943;54.378;18.604;2022-11-11T02:02:40;11.23;;;7.35;;
17239;SDS011;9943;54.378;18.604;2022-11-11T02:05:15;10.18;;;7.63;;
17239;SDS011;9943;54.378;18.604;2022-11-11T02:08:09;14.60;;;7.63;;
17239;SDS011;9943;54.378;18.604;2022-11-11T02:10:46;14.05;;;7.68;;
17239;SDS011;9943;54.378;18.604;2022-11-11T02:13:14;16.17;;;8.52;;
17239;SDS011;9943;54.378;18.604;2022-11-11T02:16:01;13.45;;;8.02;;
17239;SDS011;9943;54.378;18.604;2022-11-11T02:18:34;14.23;;;7.75;;
17239;SDS011;9943;54.378;18.604;2022-11-11T02:21:04;12.40;;;7.38;;
17239;SDS011;9943;54.378;18.604;2022-11-11T02:27:00;13.13;;;7.72;;
17239;SDS011;9943;54.378;18.604;2022-11-11T02:29:30;11.52;;;6.82;;
17239;SDS011;9943;54.378;18.604;2022-11-11T02:32:01;11.13;;;7.53;;
17239;SDS011;9943;54.378;18.604;2022-11-11T02:34:34;16.30;;;7.82;;
17239;SDS011;9943;54.378;18.604;2022-11-11T02:37:03;20.38;;;8.43;;
17239;SDS011;9943;54.378;18.604;2022-11-11T02:39:37;17.23;;;7.95;;
17239;SDS011;9943;54.378;18.604;2022-11-11T02:42:10;17.67;;;6.97;;
17239;SDS011;9943;54.378;18.604;2022-11-11T02:44:42;14.95;;;7.30;;
17239;SDS011;9943;54.378;18.604;2022-11-11T02:47:12;13.25;;;7.53;;
17239;SDS011;9943;54.378;18.604;2022-11-11T02:49:42;9.82;;;6.95;;
17239;SDS011;9943;54.378;18.604;2022-11-11T02:52:11;12.10;;;6.75;;
17239;SDS011;9943;54.378;18.604;2022-11-11T02:54:50;9.32;;;6.47;;
17239;SDS011;9943;54.378;18.604;2022-11-11T02:57:23;14.25;;;6.97;;
17239;SDS011;9943;54.378;18.604;2022-11-11T02:59:52;15.13;;;6.70;;
17239;SDS011;9943;54.378;18.604;2022-11-11T03:02:25;10.45;;;6.35;;
17239;SDS011;9943;54.378;18.604;2022-11-11T03:04:55;11.57;;;6.15;;
17239;SDS011;9943;54.378;18.604;2022-11-11T03:07:25;10.52;;;6.85;;
17239;SDS011;9943;54.378;18.604;2022-11-11T03:09:54;13.13;;;6.13;;
17239;SDS011;9943;54.378;18.604;2022-11-11T03:12:43;11.90;;;5.93;;
17239;SDS011;9943;54.378;18.604;2022-11-11T03:15:12;9.70;;;6.15;;
17239;SDS011;9943;54.378;18.604;2022-11-11T03:17:41;12.73;;;6.47;;
17239;SDS011;9943;54.378;18.604;2022-11-11T03:20:11;10.05;;;5.68;;
17239;SDS011;9943;54.378;18.604;2022-11-11T03:23:00;11.98;;;6.43;;
17239;SDS011;9943;54.378;18.604;2022-11-11T03:25:32;11.38;;;6.07;;
17239;SDS011;9943;54.378;18.604;2022-11-11T03:28:12;10.35;;;6.03;;
17239;SDS011;9943;54.378;18.604;2022-11-11T03:30:43;9.38;;;7.03;;
17239;SDS011;9943;54.378;18.604;2022-11-11T03:33:13;12.90;;;6.38;;
17239;SDS011;9943;54.378;18.604;2022-11-11T03:35:45;12.73;;;5.93;;
17239;SDS011;9943;54.378;18.604;2022-11-11T03:38:16;14.43;;;6.15;;
17239;SDS011;9943;54.378;18.604;2022-11-11T03:40:52;11.68;;;5.85;;
17239;SDS011;9943;54.378;18.604;2022-11-11T03:43:23;10.30;;;5.93;;
17239;SDS011;9943;54.378;18.604;2022-11-11T03:49:15;10.70;;;6.18;;
17239;SDS011;9943;54.378;18.604;2022-11-11T03:51:44;11.25;;;6.30;;
17239;SDS011;9943;54.378;18.604;2022-11-11T03:54:12;10.50;;;6.00;;
17239;SDS011;9943;54.378;18.604;2022-11-11T03:56:41;11.93;;;5.93;;
17239;SDS011;9943;54.378;18.604;2022-11-11T03:59:15;11.85;;;6.20;;
17239;SDS011;9943;54.378;18.604;2022-11-11T04:01:46;8.80;;;5.60;;
17239;SDS011;9943;54.378;18.604;2022-11-11T04:04:34;15.18;;;6.40;;
17239;SDS011;9943;54.378;18.604;2022-11-11T04:07:20;10.77;;;6.30;;
17239;SDS011;9943;54.378;18.604;2022-11-11T04:10:06;9.25;;;5.85;;
17239;SDS011;9943;54.378;18.604;2022-11-11T04:12:52;8.52;;;5.70;;
17239;SDS011;9943;54.378;18.604;2022-11-11T04:15:40;8.77;;;5.57;;
17239;SDS011;9943;54.378;18.604;2022-11-11T04:18:27;10.40;;;5.75;;
17239;SDS011;9943;54.378;18.604;2022-11-11T04:21:12;15.55;;;6.35;;
17239;SDS011;9943;54.378;18.604;2022-11-11T04:23:59;11.63;;;5.93;;
17239;SDS011;9943;54.378;18.604;2022-11-11T04:26:31;11.73;;;6.20;;
17239;SDS011;9943;54.378;18.604;2022-11-11T04:28:59;9.63;;;5.65;;
17239;SDS011;9943;54.378;18.604;2022-11-11T04:31:46;8.63;;;5.85;;
17239;SDS011;9943;54.378;18.604;2022-11-11T04:34:30;7.95;;;5.55;;
17239;SDS011;9943;54.378;18.604;2022-11-11T04:36:58;10.48;;;5.47;;
17239;SDS011;9943;54.378;18.604;2022-11-11T04:39:28;13.20;;;5.72;;
17239;SDS011;9943;54.378;18.604;2022-11-11T04:42:13;13.10;;;5.68;;
17239;SDS011;9943;54.378;18.604;2022-11-11T04:44:43;11.55;;;5.60;;
17239;SDS011;9943;54.378;18.604;2022-11-11T04:47:31;6.97;;;5.43;;
17239;SDS011;9943;54.378;18.604;2022-11-11T04:50:00;12.45;;;5.75;;
17239;SDS011;9943;54.378;18.604;2022-11-11T04:52:32;17.35;;;6.38;;
17239;SDS011;9943;54.378;18.604;2022-11-11T04:55:01;9.35;;;5.40;;
17239;SDS011;9943;54.378;18.604;2022-11-11T04:57:47;11.57;;;6.40;;
17239;SDS011;9943;54.378;18.604;2022-11-11T05:00:16;11.52;;;5.90;;
17239;SDS011;9943;54.378;18.604;2022-11-11T05:02:47;12.90;;;6.18;;
17239;SDS011;9943;54.378;18.604;2022-11-11T05:05:34;15.30;;;6.30;;
17239;SDS011;9943;54.378;18.604;2022-11-11T05:08:16;12.75;;;6.43;;
17239;SDS011;9943;54.378;18.604;2022-11-11T05:11:08;9.77;;;6.18;;
17239;SDS011;9943;54.378;18.604;2022-11-11T05:13:36;10.85;;;5.95;;
17239;SDS011;9943;54.378;18.604;2022-11-11T05:16:24;11.10;;;6.47;;
17239;SDS011;9943;54.378;18.604;2022-11-11T05:19:14;8.75;;;6.43;;
17239;SDS011;9943;54.378;18.604;2022-11-11T05:22:02;11.63;;;6.45;;
17239;SDS011;9943;54.378;18.604;2022-11-11T05:24:36;11.02;;;5.75;;
17239;SDS011;9943;54.378;18.604;2022-11-11T05:27:22;11.77;;;6.00;;
17239;SDS011;9943;54.378;18.604;2022-11-11T05:29:51;11.50;;;6.13;;
17239;SDS011;9943;54.378;18.604;2022-11-11T05:32:21;14.07;;;7.22;;
17239;SDS011;9943;54.378;18.604;2022-11-11T05:34:53;11.15;;;6.35;;
17239;SDS011;9943;54.378;18.604;2022-11-11T05:37:21;12.30;;;5.75;;
17239;SDS011;9943;54.378;18.604;2022-11-11T05:39:50;13.63;;;6.20;;
17239;SDS011;9943;54.378;18.604;2022-11-11T05:42:20;10.50;;;6.50;;
17239;SDS011;9943;54.378;18.604;2022-11-11T05:44:48;11.48;;;5.97;;
17239;SDS011;9943;54.378;18.604;2022-11-11T05:47:17;12.32;;;6.25;;
17239;SDS011;9943;54.378;18.604;2022-11-11T05:49:45;12.95;;;6.93;;
17239;SDS011;9943;54.378;18.604;2022-11-11T05:52:16;11.70;;;5.78;;
17239;SDS011;9943;54.378;18.604;2022-11-11T05:54:45;15.98;;;6.10;;
17239;SDS011;9943;54.378;18.604;2022-11-11T05:57:14;16.65;;;6.45;;
17239;SDS011;9943;54.378;18.604;2022-11-11T06:07:05;10.70;;;5.15;;
17239;SDS011;9943;54.378;18.604;2022-11-11T06:09:38;9.90;;;5.20;;
17239;SDS011;9943;54.378;18.604;2022-11-11T06:12:06;10.90;;;5.50;;
17239;SDS011;9943;54.378;18.604;2022-11-11T06:14:35;12.35;;;5.22;;
17239;SDS011;9943;54.378;18.604;2022-11-11T06:17:05;10.73;;;5.28;;
17239;SDS011;9943;54.378;18.604;2022-11-11T06:19:34;9.30;;;4.93;;
17239;SDS011;9943;54.378;18.604;2022-11-11T06:22:03;10.02;;;5.30;;
17239;SDS011;9943;54.378;18.604;2022-11-11T06:24:33;9.80;;;5.18;;
17239;SDS011;9943;54.378;18.604;2022-11-11T06:27:02;12.88;;;5.07;;
17239;SDS011;9943;54.378;18.604;2022-11-11T06:29:36;10.13;;;4.82;;
17239;SDS011;9943;54.378;18.604;2022-11-11T06:32:05;11.88;;;4.93;;
17239;SDS011;9943;54.378;18.604;2022-11-11T06:34:35;11.32;;;5.13;;
17239;SDS011;9943;54.378;18.604;2022-11-11T06:37:04;10.95;;;5.10;;
17239;SDS011;9943;54.378;18.604;2022-11-11T06:39:34;11.80;;;5.00;;
17239;SDS011;9943;54.378;18.604;2022-11-11T06:42:04;9.15;;;4.55;;
17239;SDS011;9943;54.378;18.604;2022-11-11T06:44:33;9.35;;;4.80;;
17239;SDS011;9943;54.378;18.604;2022-11-11T06:47:02;11.70;;;4.55;;
17239;SDS011;9943;54.378;18.604;2022-11-11T06:49:32;12.30;;;4.20;;
17239;SDS011;9943;54.378;18.604;2022-11-11T06:52:02;7.93;;;4.60;;
17239;SDS011;9943;54.378;18.604;2022-11-11T06:54:30;8.13;;;4.47;;
17239;SDS011;9943;54.378;18.604;2022-11-11T06:56:59;11.75;;;4.45;;
17239;SDS011;9943;54.378;18.604;2022-11-11T06:59:31;11.90;;;4.50;;
17239;SDS011;9943;54.378;18.604;2022-11-11T07:01:59;10.93;;;4.57;;
17239;SDS011;9943;54.378;18.604;2022-11-11T07:04:28;8.13;;;3.92;;
17239;SDS011;9943;54.378;18.604;2022-11-11T07:06:57;6.78;;;4.03;;
17239;SDS011;9943;54.378;18.604;2022-11-11T07:09:25;8.10;;;4.07;;
17239;SDS011;9943;54.378;18.604;2022-11-11T07:11:54;12.23;;;4.28;;
17239;SDS011;9943;54.378;18.604;2022-11-11T07:14:24;8.32;;;4.70;;
17239;SDS011;9943;54.378;18.604;2022-11-11T07:16:54;8.93;;;4.20;;
17239;SDS011;9943;54.378;18.604;2022-11-11T07:19:22;7.75;;;4.18;;
17239;SDS011;9943;54.378;18.604;2022-11-11T07:21:51;11.98;;;5.15;;
17239;SDS011;9943;54.378;18.604;2022-11-11T07:24:21;7.55;;;4.88;;
17239;SDS011;9943;54.378;18.604;2022-11-11T07:26:49;11.02;;;4.70;;
17239;SDS011;9943;54.378;18.604;2022-11-11T07:29:18;8.13;;;4.88;;
17239;SDS011;9943;54.378;18.604;2022-11-11T07:31:46;9.25;;;5.07;;
17239;SDS011;9943;54.378;18.604;2022-11-11T07:34:23;8.18;;;4.50;;
17239;SDS011;9943;54.378;18.604;2022-11-11T07:36:51;10.90;;;4.60;;
17239;SDS011;9943;54.378;18.604;2022-11-11T07:39:20;10.00;;;5.32;;
17239;SDS011;9943;54.378;18.604;2022-11-11T07:42:07;10.25;;;4.93;;
17239;SDS011;9943;54.378;18.604;2022-11-11T07:44:39;15.27;;;5.20;;
17239;SDS011;9943;54.378;18.604;2022-11-11T07:47:07;9.25;;;4.15;;
17239;SDS011;9943;54.378;18.604;2022-11-11T07:49:37;9.98;;;4.75;;
17239;SDS011;9943;54.378;18.604;2022-11-11T07:52:08;13.07;;;4.70;;
17239;SDS011;9943;54.378;18.604;2022-11-11T07:54:39;9.57;;;4.68;;
17239;SDS011;9943;54.378;18.604;2022-11-11T07:57:08;7.72;;;4.55;;
17239;SDS011;9943;54.378;18.604;2022-11-11T07:59:37;9.38;;;4.28;;
17239;SDS011;9943;54.378;18.604;2022-11-11T08:02:08;11.27;;;4.95;;
17239;SDS011;9943;54.378;18.604;2022-11-11T08:04:42;12.23;;;4.82;;
17239;SDS011;9943;54.378;18.604;2022-11-11T08:07:14;6.50;;;4.25;;
17239;SDS011;9943;54.378;18.604;2022-11-11T08:09:43;8.88;;;4.95;;
17239;SDS011;9943;54.378;18.604;2022-11-11T08:12:11;11.80;;;5.18;;
17239;SDS011;9943;54.378;18.604;2022-11-11T08:14:57;12.52;;;4.70;;
17239;SDS011;9943;54.378;18.604;2022-11-11T08:17:26;11.50;;;5.32;;
17239;SDS011;9943;54.378;18.604;2022-11-11T08:19:56;11.20;;;5.97;;
17239;SDS011;9943;54.378;18.604;2022-11-11T08:22:24;12.57;;;6.53;;
17239;SDS011;9943;54.378;18.604;2022-11-11T08:24:53;15.48;;;6.70;;
17239;SDS011;9943;54.378;18.604;2022-11-11T08:27:27;15.75;;;6.50;;
17239;SDS011;9943;54.378;18.604;2022-11-11T08:29:56;10.30;;;5.82;;
17239;SDS011;9943;54.378;18.604;2022-11-11T08:32:26;12.40;;;4.97;;
17239;SDS011;9943;54.378;18.604;2022-11-11T08:34:58;8.75;;;4.72;;
17239;SDS011;9943;54.378;18.604;2022-11-11T08:37:29;10.40;;;4.65;;
17239;SDS011;9943;54.378;18.604;2022-11-11T08:40:04;8.63;;;4.38;;
17239;SDS011;9943;54.378;18.604;2022-11-11T08:42:36;8.88;;;4.57;;
17239;SDS011;9943;54.378;18.604;2022-11-11T08:45:05;10.15;;;4.28;;
17239;SDS011;9943;54.378;18.604;2022-11-11T08:47:35;12.25;;;4.70;;
17239;SDS011;9943;54.378;18.604;2022-11-11T08:50:10;13.88;;;5.32;;
17239;SDS011;9943;54.378;18.604;2022-11-11T08:52:44;9.55;;;4.95;;
17239;SDS011;9943;54.378;18.604;2022-11-11T08:55:16;10.10;;;4.80;;
17239;SDS011;9943;54.378;18.604;2022-11-11T08:57:47;12.57;;;5.35;;
17239;SDS011;9943;54.378;18.604;2022-11-11T09:00:34;8.48;;;5.03;;
17239;SDS011;9943;54.378;18.604;2022-11-11T09:03:05;14.02;;;4.88;;
17239;SDS011;9943;54.378;18.604;2022-11-11T09:05:38;8.98;;;5.88;;
17239;SDS011;9943;54.378;18.604;2022-11-11T09:08:09;10.55;;;5.28;;
17239;SDS011;9943;54.378;18.604;2022-11-11T09:10:41;11.52;;;4.80;;
17239;SDS011;9943;54.378;18.604;2022-11-11T09:13:11;13.18;;;5.47;;
17239;SDS011;9943;54.378;18.604;2022-11-11T09:15:39;9.88;;;4.88;;
17239;SDS011;9943;54.378;18.604;2022-11-11T09:18:08;11.20;;;5.57;;
17239;SDS011;9943;54.378;18.604;2022-11-11T09:20:41;9.55;;;5.30;;
17239;SDS011;9943;54.378;18.604;2022-11-11T09:23:09;9.95;;;4.88;;
17239;SDS011;9943;54.378;18.604;2022-11-11T09:25:38;12.25;;;5.15;;
17239;SDS011;9943;54.378;18.604;2022-11-11T09:28:07;9.23;;;5.22;;
17239;SDS011;9943;54.378;18.604;2022-11-11T09:30:36;13.10;;;5.35;;
17239;SDS011;9943;54.378;18.604;2022-11-11T09:33:11;7.60;;;5.25;;
17239;SDS011;9943;54.378;18.604;2022-11-11T09:35:45;9.40;;;5.53;;
17239;SDS011;9943;54.378;18.604;2022-11-11T09:38:13;9.02;;;4.78;;
17239;SDS011;9943;54.378;18.604;2022-11-11T09:40:45;6.55;;;4.90;;
17239;SDS011;9943;54.378;18.604;2022-11-11T09:43:27;14.05;;;5.70;;
17239;SDS011;9943;54.378;18.604;2022-11-11T09:46:06;16.30;;;5.97;;
17239;SDS011;9943;54.378;18.604;2022-11-11T09:51:59;11.50;;;5.10;;
17239;SDS011;9943;54.378;18.604;2022-11-11T09:54:35;12.35;;;5.25;;
17239;SDS011;9943;54.378;18.604;2022-11-11T09:57:12;10.38;;;5.55;;
17239;SDS011;9943;54.378;18.604;2022-11-11T09:59:46;11.30;;;5.57;;
17239;SDS011;9943;54.378;18.604;2022-11-11T10:02:25;10.45;;;5.20;;
17239;SDS011;9943;54.378;18.604;2022-11-11T10:05:01;9.10;;;5.60;;
17239;SDS011;9943;54.378;18.604;2022-11-11T10:07:40;12.18;;;4.97;;
17239;SDS011;9943;54.378;18.604;2022-11-11T10:10:19;11.93;;;4.95;;
17239;SDS011;9943;54.378;18.604;2022-11-11T10:12:55;10.75;;;5.55;;
17239;SDS011;9943;54.378;18.604;2022-11-11T10:15:33;15.32;;;7.28;;
17239;SDS011;9943;54.378;18.604;2022-11-11T10:18:14;8.15;;;5.13;;
17239;SDS011;9943;54.378;18.604;2022-11-11T10:20:55;11.15;;;5.20;;
17239;SDS011;9943;54.378;18.604;2022-11-11T10:23:25;9.40;;;5.07;;
17239;SDS011;9943;54.378;18.604;2022-11-11T10:26:00;8.55;;;4.68;;
17239;SDS011;9943;54.378;18.604;2022-11-11T10:28:35;11.48;;;4.95;;
17239;SDS011;9943;54.378;18.604;2022-11-11T10:31:05;9.82;;;5.10;;
17239;SDS011;9943;54.378;18.604;2022-11-11T10:33:43;13.40;;;5.28;;
17239;SDS011;9943;54.378;18.604;2022-11-11T10:36:17;10.57;;;4.55;;
17239;SDS011;9943;54.378;18.604;2022-11-11T10:39:01;9.02;;;4.95;;
17239;SDS011;9943;54.378;18.604;2022-11-11T10:41:37;8.50;;;4.93;;
17239;SDS011;9943;54.378;18.604;2022-11-11T10:44:18;9.68;;;5.07;;
17239;SDS011;9943;54.378;18.604;2022-11-11T10:46:51;6.47;;;4.63;;
17239;SDS011;9943;54.378;18.604;2022-11-11T10:49:31;11.85;;;5.53;;
17239;SDS011;9943;54.378;18.604;2022-11-11T10:52:11;10.68;;;4.88;;
17239;SDS011;9943;54.378;18.604;2022-11-11T10:54:46;15.02;;;5.07;;
17239;SDS011;9943;54.378;18.604;2022-11-11T10:57:20;8.55;;;5.35;;
17239;SDS011;9943;54.378;18.604;2022-11-11T10:59:54;11.15;;;6.10;;
17239;SDS011;9943;54.378;18.604;2022-11-11T11:02:36;7.80;;;5.20;;
17239;SDS011;9943;54.378;18.604;2022-11-11T11:05:16;10.32;;;4.72;;
17239;SDS011;9943;54.378;18.604;2022-11-11T11:07:50;11.80;;;4.80;;
17239;SDS011;9943;54.378;18.604;2022-11-11T11:10:28;11.57;;;5.50;;
17239;SDS011;9943;54.378;18.604;2022-11-11T11:13:02;11.27;;;5.38;;
17239;SDS011;9943;54.378;18.604;2022-11-11T11:15:40;11.52;;;5.60;;
17239;SDS011;9943;54.378;18.604;2022-11-11T11:18:15;9.02;;;5.18;;
17239;SDS011;9943;54.378;18.604;2022-11-11T11:20:55;10.88;;;5.40;;
17239;SDS011;9943;54.378;18.604;2022-11-11T11:23:35;10.75;;;5.50;;
17239;SDS011;9943;54.378;18.604;2022-11-11T11:26:07;7.18;;;5.07;;
17239;SDS011;9943;54.378;18.604;2022-11-11T11:28:51;6.55;;;5.20;;
17239;SDS011;9943;54.378;18.604;2022-11-11T11:31:33;9.73;;;5.15;;
17239;SDS011;9943;54.378;18.604;2022-11-11T11:34:03;12.75;;;6.20;;
17239;SDS011;9943;54.378;18.604;2022-11-11T11:36:32;9.15;;;5.50;;
17239;SDS011;9943;54.378;18.604;2022-11-11T11:39:11;14.18;;;5.75;;
17239;SDS011;9943;54.378;18.604;2022-11-11T11:41:44;16.02;;;6.47;;
17239;SDS011;9943;54.378;18.604;2022-11-11T11:44:25;10.45;;;5.32;;
17239;SDS011;9943;54.378;18.604;2022-11-11T11:46:58;13.50;;;5.65;;
17239;SDS011;9943;54.378;18.604;2022-11-11T11:49:46;14.82;;;5.95;;
17239;SDS011;9943;54.378;18.604;2022-11-11T11:52:35;10.40;;;5.60;;
17239;SDS011;9943;54.378;18.604;2022-11-11T11:55:14;14.05;;;6.72;;
17239;SDS011;9943;54.378;18.604;2022-11-11T11:57:51;12.70;;;6.00;;
17239;SDS011;9943;54.378;18.604;2022-11-11T12:00:34;11.70;;;6.15;;
17239;SDS011;9943;54.378;18.604;2022-11-11T12:03:16;10.85;;;6.15;;
17239;SDS011;9943;54.378;18.604;2022-11-11T12:06:00;15.15;;;6.60;;
17239;SDS011;9943;54.378;18.604;2022-11-11T12:08:39;11.35;;;6.38;;
17239;SDS011;9943;54.378;18.604;2022-11-11T12:11:17;12.15;;;6.43;;
17239;SDS011;9943;54.378;18.604;2022-11-11T12:14:02;12.07;;;6.18;;
17239;SDS011;9943;54.378;18.604;2022-11-11T12:16:52;11.35;;;6.53;;
17239;SDS011;9943;54.378;18.604;2022-11-11T12:22:21;11.63;;;6.00;;
17239;SDS011;9943;54.378;18.604;2022-11-11T12:25:01;7.95;;;6.53;;
17239;SDS011;9943;54.378;18.604;2022-11-11T12:27:47;13.35;;;6.97;;
17239;SDS011;9943;54.378;18.604;2022-11-11T12:30:24;11.48;;;6.07;;
17239;SDS011;9943;54.378;18.604;2022-11-11T12:33:01;9.90;;;5.85;;
17239;SDS011;9943;54.378;18.604;2022-11-11T12:35:48;10.80;;;6.35;;
17239;SDS011;9943;54.378;18.604;2022-11-11T12:38:37;10.23;;;6.40;;
17239;SDS011;9943;54.378;18.604;2022-11-11T12:41:34;12.55;;;7.50;;
17239;SDS011;9943;54.378;18.604;2022-11-11T12:44:14;13.40;;;6.82;;
17239;SDS011;9943;54.378;18.604;2022-11-11T12:46:49;13.98;;;6.88;;
17239;SDS011;9943;54.378;18.604;2022-11-11T12:49:34;12.57;;;6.80;;
17239;SDS011;9943;54.378;18.604;2022-11-11T12:52:18;14.63;;;7.22;;
17239;SDS011;9943;54.378;18.604;2022-11-11T12:55:05;13.40;;;7.10;;
17239;SDS011;9943;54.378;18.604;2022-11-11T12:57:45;15.25;;;7.72;;
17239;SDS011;9943;54.378;18.604;2022-11-11T13:00:28;10.88;;;6.80;;
17239;SDS011;9943;54.378;18.604;2022-11-11T13:03:25;11.65;;;7.63;;
17239;SDS011;9943;54.378;18.604;2022-11-11T13:06:31;10.30;;;6.88;;
17239;SDS011;9943;54.378;18.604;2022-11-11T13:09:32;15.25;;;7.07;;
17239;SDS011;9943;54.378;18.604;2022-11-11T13:12:23;13.73;;;6.85;;
17239;SDS011;9943;54.378;18.604;2022-11-11T13:15:02;10.05;;;7.05;;
17239;SDS011;9943;54.378;18.604;2022-11-11T13:17:35;12.18;;;7.32;;
17239;SDS011;9943;54.378;18.604;2022-11-11T13:20:11;14.45;;;7.70;;
17239;SDS011;9943;54.378;18.604;2022-11-11T13:22:45;13.05;;;8.32;;
17239;SDS011;9943;54.378;18.604;2022-11-11T13:25:20;17.15;;;8.65;;
17239;SDS011;9943;54.378;18.604;2022-11-11T13:27:52;17.60;;;9.60;;
17239;SDS011;9943;54.378;18.604;2022-11-11T13:30:33;13.70;;;8.13;;
17239;SDS011;9943;54.378;18.604;2022-11-11T13:33:26;11.55;;;7.78;;
17239;SDS011;9943;54.378;18.604;2022-11-11T13:36:11;13.32;;;8.18;;
17239;SDS011;9943;54.378;18.604;2022-11-11T13:38:43;14.65;;;7.55;;
17239;SDS011;9943;54.378;18.604;2022-11-11T13:41:18;10.50;;;6.57;;
17239;SDS011;9943;54.378;18.604;2022-11-11T13:43:53;11.43;;;7.13;;
17239;SDS011;9943;54.378;18.604;2022-11-11T13:46:34;14.27;;;7.75;;
17239;SDS011;9943;54.378;18.604;2022-11-11T13:49:07;16.20;;;8.02;;
17239;SDS011;9943;54.378;18.604;2022-11-11T13:51:55;14.82;;;8.23;;
17239;SDS011;9943;54.378;18.604;2022-11-11T13:54:40;13.75;;;8.23;;
17239;SDS011;9943;54.378;18.604;2022-11-11T13:57:17;14.57;;;7.53;;
17239;SDS011;9943;54.378;18.604;2022-11-11T13:59:52;10.27;;;7.40;;
17239;SDS011;9943;54.378;18.604;2022-11-11T14:02:29;11.88;;;7.35;;
17239;SDS011;9943;54.378;18.604;2022-11-11T14:07:56;14.80;;;8.45;;
17239;SDS011;9943;54.378;18.604;2022-11-11T14:10:42;15.32;;;10.93;;
17239;SDS011;9943;54.378;18.604;2022-11-11T14:13:37;11.40;;;8.95;;
17239;SDS011;9943;54.378;18.604;2022-11-11T14:16:12;12.05;;;8.40;;
17239;SDS011;9943;54.378;18.604;2022-11-11T14:19:28;13.00;;;7.80;;
17239;SDS011;9943;54.378;18.604;2022-11-11T14:22:00;17.08;;;9.05;;
17239;SDS011;9943;54.378;18.604;2022-11-11T14:24:33;15.57;;;7.72;;
17239;SDS011;9943;54.378;18.604;2022-11-11T14:27:17;11.88;;;7.70;;
17239;SDS011;9943;54.378;18.604;2022-11-11T14:29:53;11.18;;;7.65;;
17239;SDS011;9943;54.378;18.604;2022-11-11T14:32:44;13.65;;;8.52;;
17239;SDS011;9943;54.378;18.604;2022-11-11T14:35:25;13.02;;;7.45;;
17239;SDS011;9943;54.378;18.604;2022-11-11T14:38:13;13.45;;;7.65;;
17239;SDS011;9943;54.378;18.604;2022-11-11T14:40:51;14.85;;;8.95;;
17239;SDS011;9943;54.378;18.604;2022-11-11T14:43:33;11.27;;;8.52;;
17239;SDS011;9943;54.378;18.604;2022-11-11T14:46:08;19.00;;;12.40;;
17239;SDS011;9943;54.378;18.604;2022-11-11T14:48:49;16.08;;;10.10;;
17239;SDS011;9943;54.378;18.604;2022-11-11T14:54:40;12.05;;;6.90;;
17239;SDS011;9943;54.378;18.604;2022-11-11T14:57:23;11.75;;;8.02;;
17239;SDS011;9943;54.378;18.604;2022-11-11T14:59:58;10.88;;;7.82;;
17239;SDS011;9943;54.378;18.604;2022-11-11T15:02:34;15.07;;;8.10;;
17239;SDS011;9943;54.378;18.604;2022-11-11T15:05:13;16.95;;;8.15;;
17239;SDS011;9943;54.378;18.604;2022-11-11T15:08:03;15.57;;;7.93;;
17239;SDS011;9943;54.378;18.604;2022-11-11T15:10:56;13.20;;;8.40;;
17239;SDS011;9943;54.378;18.604;2022-11-11T15:13:49;24.83;;;13.15;;
17239;SDS011;9943;54.378;18.604;2022-11-11T15:16:35;12.63;;;7.90;;
17239;SDS011;9943;54.378;18.604;2022-11-11T15:19:25;14.05;;;8.27;;
17239;SDS011;9943;54.378;18.604;2022-11-11T15:22:04;12.70;;;8.13;;
17239;SDS011;9943;54.378;18.604;2022-11-11T15:24:46;11.02;;;8.00;;
17239;SDS011;9943;54.378;18.604;2022-11-11T15:27:25;16.15;;;8.52;;
17239;SDS011;9943;54.378;18.604;2022-11-11T15:30:08;14.07;;;8.80;;
17239;SDS011;9943;54.378;18.604;2022-11-11T15:32:47;15.27;;;8.40;;
17239;SDS011;9943;54.378;18.604;2022-11-11T15:35:31;12.52;;;8.13;;
17239;SDS011;9943;54.378;18.604;2022-11-11T15:38:04;18.90;;;8.40;;
17239;SDS011;9943;54.378;18.604;2022-11-11T15:40:43;12.80;;;8.20;;
17239;SDS011;9943;54.378;18.604;2022-11-11T15:43:14;14.35;;;9.45;;
17239;SDS011;9943;54.378;18.604;2022-11-11T15:45:49;13.45;;;8.07;;
17239;SDS011;9943;54.378;18.604;2022-11-11T15:48:20;13.02;;;8.45;;
17239;SDS011;9943;54.378;18.604;2022-11-11T15:50:51;13.27;;;8.18;;
17239;SDS011;9943;54.378;18.604;2022-11-11T15:53:23;19.17;;;8.90;;